Time;durP1;ratioP1;P1;durP2;ratioP2;P2;SDS_P1;SDS_P2;PMS_P1;PMS_P2;Temp;Humidity;BMP_temperature;BMP_pressure;BME280_temperature;BME280_humidity;BME280_pressure;Samples;Min_cycle;Max_cycle;Signal;HPM_P1;HPM_P2
2023/01/28 00:01:45;;;;;;;18.65;12.50;;;3.60;99.90;;;;;;4900642;29;20064;-73
2023/01/28 00:04:10;;;;;;;19.10;11.85;;;3.60;99.90;;;;;;4889093;29;20028;-73
2023/01/28 00:06:37;;;;;;;17.42;12.85;;;3.60;99.90;;;;;;4902149;29;20220;-73
2023/01/28 00:09:02;;;;;;;19.13;13.27;;;3.60;99.90;;;;;;4899541;29;21562;-73
2023/01/28 00:11:28;;;;;;;18.55;12.75;;;3.70;99.90;;;;;;4896485;29;20048;-74
2023/01/28 00:13:54;;;;;;;17.35;12.50;;;3.70;99.90;;;;;;4895578;29;20056;-74
2023/01/28 00:16:25;;;;;;;19.70;14.07;;;3.60;99.90;;;;;;4893402;29;20067;-73
2023/01/28 00:18:52;;;;;;;16.80;11.85;;;3.60;99.90;;;;;;4893572;29;20036;-74
2023/01/28 00:21:17;;;;;;;18.45;11.75;;;3.60;99.90;;;;;;4890389;29;20040;-74
2023/01/28 00:23:49;;;;;;;18.83;12.90;;;3.60;99.90;;;;;;4893430;29;20040;-74
2023/01/28 00:26:15;;;;;;;21.15;12.35;;;3.60;99.90;;;;;;4899154;29;20493;-73
2023/01/28 00:28:41;;;;;;;19.10;13.40;;;3.60;99.90;;;;;;4888876;29;20104;-73
2023/01/28 00:31:09;;;;;;;20.15;13.32;;;3.60;99.90;;;;;;4898540;29;20054;-73
2023/01/28 00:33:37;;;;;;;18.55;12.93;;;3.50;99.90;;;;;;4898878;29;24525;-74
2023/01/28 00:36:05;;;;;;;18.65;12.25;;;3.50;99.90;;;;;;4894339;29;20033;-74
2023/01/28 00:38:31;;;;;;;18.23;12.65;;;3.40;99.90;;;;;;4889964;29;20126;-74
2023/01/28 00:41:07;;;;;;;17.55;12.07;;;3.30;99.90;;;;;;4893292;29;20048;-73
2023/01/28 00:43:33;;;;;;;17.48;11.93;;;3.20;99.90;;;;;;4898289;29;20036;-73
2023/01/28 00:45:59;;;;;;;17.25;12.23;;;3.10;99.90;;;;;;4898471;29;20036;-73
2023/01/28 00:48:24;;;;;;;17.27;11.57;;;3.10;99.90;;;;;;4895235;29;21085;-73
2023/01/28 00:50:50;;;;;;;16.95;11.32;;;3.10;99.90;;;;;;4891797;29;20044;-72
2023/01/28 00:53:16;;;;;;;15.90;11.32;;;3.20;99.90;;;;;;4898480;29;20043;-79
2023/01/28 00:55:41;;;;;;;17.42;11.75;;;3.20;99.90;;;;;;4897037;29;20048;-73
2023/01/28 00:58:07;;;;;;;18.27;12.40;;;3.10;99.90;;;;;;4899439;29;20733;-73
2023/01/28 01:00:33;;;;;;;22.15;13.20;;;3.20;99.90;;;;;;4895028;29;20090;-73
2023/01/28 01:02:59;;;;;;;18.50;12.02;;;3.30;99.90;;;;;;4896945;29;20169;-74
2023/01/28 01:05:24;;;;;;;18.55;12.48;;;3.40;99.90;;;;;;4898442;29;20051;-74
2023/01/28 01:07:50;;;;;;;17.75;12.32;;;3.50;99.90;;;;;;4897518;29;20043;-74
2023/01/28 01:10:18;;;;;;;17.20;12.57;;;3.50;99.90;;;;;;4896234;29;20054;-74
2023/01/28 01:12:48;;;;;;;17.77;12.65;;;3.50;99.90;;;;;;4899272;29;20032;-73
2023/01/28 01:15:15;;;;;;;19.23;12.48;;;3.50;99.90;;;;;;4893868;29;20040;-74
2023/01/28 01:17:43;;;;;;;18.50;12.63;;;3.50;99.90;;;;;;4901169;29;20036;-74
2023/01/28 01:20:14;;;;;;;20.08;13.15;;;3.50;99.90;;;;;;4900251;29;20467;-74
2023/01/28 01:22:39;;;;;;;17.20;11.95;;;3.50;99.90;;;;;;4898642;29;20093;-74
2023/01/28 01:25:06;;;;;;;17.70;11.93;;;3.50;99.90;;;;;;4895248;29;20037;-74
2023/01/28 01:27:32;;;;;;;18.25;12.38;;;3.60;99.90;;;;;;4899607;29;20505;-74
2023/01/28 01:29:58;;;;;;;16.80;11.63;;;3.70;99.90;;;;;;4889724;29;20044;-73
2023/01/28 01:32:27;;;;;;;18.08;12.10;;;3.70;99.90;;;;;;4913803;29;20036;-74
2023/01/28 01:34:53;;;;;;;16.70;11.00;;;3.60;99.90;;;;;;4893798;29;20048;-74
2023/01/28 01:37:20;;;;;;;16.80;10.60;;;3.50;99.90;;;;;;4898113;29;20049;-74
2023/01/28 01:39:46;;;;;;;16.05;11.20;;;3.50;99.90;;;;;;4898545;29;20044;-74
2023/01/28 01:42:13;;;;;;;17.90;11.15;;;3.50;99.90;;;;;;4902675;29;20628;-74
2023/01/28 01:44:57;;;;;;;16.50;11.48;;;3.50;99.90;;;;;;4884823;29;20068;-74
2023/01/28 01:47:47;;;;;;;16.70;11.65;;;3.50;99.90;;;;;;4895108;29;20040;-75
2023/01/28 01:50:18;;;;;;;17.63;11.07;;;3.50;99.90;;;;;;4893674;29;20037;-74
2023/01/28 01:52:46;;;;;;;15.85;11.10;;;3.50;99.90;;;;;;4896680;29;20036;-73
2023/01/28 01:55:15;;;;;;;16.88;11.43;;;3.50;99.90;;;;;;4894483;29;20036;-74
2023/01/28 01:57:42;;;;;;;16.63;11.93;;;3.40;99.90;;;;;;4914087;28;20401;-74
2023/01/28 02:00:09;;;;;;;17.23;11.23;;;3.40;99.90;;;;;;4891441;29;20498;-74
2023/01/28 02:02:39;;;;;;;19.08;11.90;;;3.40;99.90;;;;;;4901857;29;20120;-74
2023/01/28 02:05:07;;;;;;;15.77;11.13;;;3.50;99.90;;;;;;4899681;29;20036;-74
2023/01/28 02:07:34;;;;;;;16.00;11.52;;;3.50;99.90;;;;;;4898939;29;20041;-72
2023/01/28 02:10:00;;;;;;;16.00;11.27;;;3.50;99.90;;;;;;4884460;29;20036;-73
2023/01/28 02:12:33;;;;;;;16.73;11.98;;;3.50;99.90;;;;;;4894486;29;20032;-73
2023/01/28 02:15:04;;;;;;;17.50;11.93;;;3.40;99.90;;;;;;4892305;29;20044;-75
2023/01/28 02:17:30;;;;;;;15.45;12.05;;;3.40;99.90;;;;;;4897688;29;20188;-75
2023/01/28 02:20:08;;;;;;;16.73;11.93;;;3.40;99.90;;;;;;4894647;29;20036;-74
2023/01/28 02:23:04;;;;;;;19.00;12.75;;;3.50;99.90;;;;;;4902477;29;20040;-74
2023/01/28 02:25:44;;;;;;;18.40;13.18;;;3.50;99.90;;;;;;4897730;29;20071;-75
2023/01/28 02:28:28;;;;;;;15.93;11.23;;;3.50;99.90;;;;;;4886865;29;20117;-74
2023/01/28 02:31:14;;;;;;;18.17;11.55;;;3.40;99.90;;;;;;4892539;29;20048;-74
2023/01/28 02:34:01;;;;;;;17.08;11.48;;;3.10;99.90;;;;;;4892482;29;20048;-74
2023/01/28 02:36:43;;;;;;;16.80;10.52;;;3.00;99.90;;;;;;4894999;29;20044;-74
2023/01/28 02:39:15;;;;;;;18.83;11.70;;;2.90;99.90;;;;;;4894525;29;20513;-74
2023/01/28 02:41:49;;;;;;;18.88;11.38;;;2.90;99.90;;;;;;4888329;29;20413;-74
2023/01/28 02:44:14;;;;;;;18.30;12.25;;;2.90;99.90;;;;;;4889944;29;20051;-74
2023/01/28 02:49:33;;;;;;;16.13;10.93;;;3.00;99.90;;;;;;4887579;29;20047;-74
2023/01/28 02:55:44;;;;;;;16.55;11.68;;;3.00;99.90;;;;;;4893786;29;20055;-73
2023/01/28 02:58:43;;;;;;;15.93;10.60;;;3.10;99.90;;;;;;4893532;29;20033;-74
2023/01/28 03:01:27;;;;;;;19.65;12.00;;;3.10;99.90;;;;;;4896572;29;20059;-74
2023/01/28 03:04:04;;;;;;;15.25;11.13;;;3.20;99.90;;;;;;4895576;29;20509;-74
2023/01/28 03:06:49;;;;;;;21.42;12.00;;;3.30;99.90;;;;;;4901416;29;20044;-74
2023/01/28 03:09:21;;;;;;;18.08;11.95;;;3.30;99.90;;;;;;4901174;29;20123;-74
2023/01/28 03:36:58;;;;;;;20.60;14.45;;;3.40;99.90;;;;;;4899222;29;20458;-73
2023/01/28 03:39:27;;;;;;;22.25;13.75;;;3.40;99.90;;;;;;4897823;29;20032;-74
2023/01/28 03:42:06;;;;;;;20.50;14.07;;;3.40;99.90;;;;;;4896560;29;20052;-73
2023/01/28 03:44:51;;;;;;;21.88;15.10;;;3.40;99.90;;;;;;4901643;29;20032;-73
2023/01/28 03:47:25;;;;;;;20.73;14.05;;;3.30;99.90;;;;;;4898027;29;20050;-74
2023/01/28 03:49:53;;;;;;;19.25;12.63;;;3.20;99.90;;;;;;4892458;29;20043;-74
2023/01/28 03:52:24;;;;;;;16.83;12.35;;;3.20;99.90;;;;;;4901590;29;20132;-74
2023/01/28 03:54:51;;;;;;;22.87;14.93;;;3.20;99.90;;;;;;4899487;29;20485;-74
2023/01/28 03:57:20;;;;;;;20.95;13.70;;;3.20;99.90;;;;;;4898785;29;20204;-74
2023/01/28 03:59:48;;;;;;;28.73;18.55;;;3.20;99.90;;;;;;4894826;29;20462;-74
2023/01/28 04:02:15;;;;;;;47.67;27.52;;;3.10;99.90;;;;;;4899056;29;20513;-74
2023/01/28 04:04:41;;;;;;;41.00;23.88;;;3.10;99.90;;;;;;4899926;29;20585;-74
2023/01/28 04:07:09;;;;;;;34.50;21.52;;;3.10;99.90;;;;;;4895754;29;20048;-73
2023/01/28 04:09:35;;;;;;;27.55;17.27;;;3.10;99.90;;;;;;4900573;29;20044;-73
2023/01/28 04:12:02;;;;;;;33.80;21.25;;;3.00;99.90;;;;;;4899473;29;20029;-73
2023/01/28 04:14:28;;;;;;;34.28;21.30;;;3.00;99.90;;;;;;4890827;29;20077;-73
2023/01/28 04:16:56;;;;;;;32.40;20.13;;;3.00;99.90;;;;;;4891330;29;21364;-73
2023/01/28 04:19:22;;;;;;;29.05;18.95;;;3.00;99.90;;;;;;4897893;29;20466;-73
2023/01/28 04:21:48;;;;;;;32.15;19.10;;;2.90;99.90;;;;;;4898014;29;20056;-73
2023/01/28 04:24:15;;;;;;;26.83;18.35;;;3.00;99.90;;;;;;4896755;29;20510;-73
2023/01/28 04:26:41;;;;;;;21.30;14.75;;;3.00;99.90;;;;;;4900875;29;20344;-73
2023/01/28 04:29:06;;;;;;;21.35;14.38;;;3.10;99.90;;;;;;4895291;29;20492;-73
2023/01/28 04:31:33;;;;;;;21.10;13.43;;;3.10;99.90;;;;;;4904178;29;20365;-73
2023/01/28 04:33:59;;;;;;;21.77;13.88;;;3.00;99.90;;;;;;4899473;29;20063;-73
2023/01/28 04:36:25;;;;;;;21.27;12.90;;;3.00;99.90;;;;;;4896407;29;20438;-74
2023/01/28 04:38:52;;;;;;;21.00;13.40;;;2.90;99.90;;;;;;4897932;29;20033;-73
2023/01/28 04:41:19;;;;;;;18.60;12.75;;;2.80;99.90;;;;;;4898580;29;20103;-74
2023/01/28 04:43:44;;;;;;;19.10;12.30;;;2.70;99.90;;;;;;4897246;29;20056;-74
2023/01/28 04:46:10;;;;;;;19.52;13.05;;;2.60;99.90;;;;;;4890185;29;20521;-74
2023/01/28 04:48:36;;;;;;;20.27;13.90;;;2.60;99.90;;;;;;4892720;29;20040;-74
2023/01/28 04:51:04;;;;;;;21.90;14.48;;;2.70;99.90;;;;;;4897797;29;20756;-74
2023/01/28 04:53:30;;;;;;;30.83;17.92;;;2.80;99.90;;;;;;4883863;29;20041;-73
2023/01/28 04:55:56;;;;;;;17.45;13.00;;;2.90;99.90;;;;;;4890911;29;20048;-73
2023/01/28 04:58:22;;;;;;;20.88;13.95;;;3.00;99.90;;;;;;4893225;29;20120;-74
2023/01/28 05:00:56;;;;;;;19.63;14.10;;;2.90;99.90;;;;;;4897114;29;20044;-74
2023/01/28 05:03:22;;;;;;;16.35;11.88;;;2.80;99.90;;;;;;4895757;29;20123;-74
2023/01/28 05:05:48;;;;;;;18.48;12.60;;;2.80;99.90;;;;;;4906815;29;20177;-74
2023/01/28 05:08:15;;;;;;;17.77;12.93;;;2.70;99.90;;;;;;4892851;29;20033;-73
2023/01/28 05:10:40;;;;;;;23.00;15.13;;;2.60;99.90;;;;;;4901181;29;20040;-73
2023/01/28 05:13:06;;;;;;;18.42;11.90;;;2.70;99.90;;;;;;4904264;29;20023;-74
2023/01/28 05:15:31;;;;;;;17.60;11.38;;;2.70;99.90;;;;;;4892619;29;20413;-73
2023/01/28 05:17:58;;;;;;;16.40;10.98;;;2.70;99.90;;;;;;4907898;29;20749;-74
2023/01/28 05:20:24;;;;;;;19.88;10.95;;;2.70;99.90;;;;;;4894680;29;20056;-73
2023/01/28 05:22:50;;;;;;;18.95;13.25;;;2.60;99.90;;;;;;4896723;29;20036;-74
2023/01/28 05:25:16;;;;;;;21.92;13.43;;;2.60;99.90;;;;;;4905204;29;20075;-73
2023/01/28 05:27:41;;;;;;;30.50;18.35;;;2.70;99.90;;;;;;4896306;29;20139;-73
2023/01/28 05:30:08;;;;;;;32.95;20.02;;;2.80;99.90;;;;;;4904793;29;20059;-74
2023/01/28 05:32:33;;;;;;;34.35;21.27;;;2.90;99.90;;;;;;4903040;29;20040;-73
2023/01/28 05:34:59;;;;;;;29.05;19.48;;;2.90;99.90;;;;;;4898682;29;20478;-73
2023/01/28 05:37:24;;;;;;;27.10;17.40;;;2.90;99.90;;;;;;4902893;29;20044;-73
2023/01/28 05:39:50;;;;;;;23.48;16.20;;;2.90;99.90;;;;;;4897667;29;20056;-73
2023/01/28 05:42:17;;;;;;;20.38;14.98;;;2.90;99.90;;;;;;4903695;29;20047;-72
2023/01/28 05:44:43;;;;;;;22.08;14.32;;;2.90;99.90;;;;;;4904900;29;20032;-72
2023/01/28 05:47:08;;;;;;;18.42;13.55;;;2.90;99.90;;;;;;4893799;29;20051;-73
2023/01/28 05:49:34;;;;;;;24.45;17.52;;;3.00;99.90;;;;;;4898323;29;20024;-73
2023/01/28 05:52:01;;;;;;;23.52;15.98;;;3.10;99.90;;;;;;4901670;29;20032;-73
2023/01/28 05:54:27;;;;;;;21.95;14.93;;;3.10;99.90;;;;;;4900193;29;20052;-73
2023/01/28 05:56:53;;;;;;;26.17;17.08;;;3.10;99.90;;;;;;4899634;29;20052;-73
2023/01/28 05:59:19;;;;;;;26.20;17.52;;;3.10;99.90;;;;;;4895429;29;20093;-73
2023/01/28 06:01:44;;;;;;;28.83;18.83;;;3.10;99.90;;;;;;4884494;29;20241;-73
2023/01/28 06:04:10;;;;;;;28.10;18.73;;;3.10;99.90;;;;;;4898790;29;20083;-74
2023/01/28 06:06:35;;;;;;;28.58;18.20;;;3.10;99.90;;;;;;4902054;29;20040;-73
2023/01/28 06:09:01;;;;;;;30.70;20.52;;;3.00;99.90;;;;;;4894213;29;20048;-73
2023/01/28 06:11:27;;;;;;;28.67;20.52;;;3.10;99.90;;;;;;4894090;29;20055;-73
2023/01/28 06:13:52;;;;;;;24.73;16.98;;;3.00;99.90;;;;;;4879171;29;20147;-73
2023/01/28 06:16:18;;;;;;;26.73;16.80;;;3.00;99.90;;;;;;4898388;29;20040;-72
2023/01/28 06:18:44;;;;;;;26.05;18.42;;;2.90;99.90;;;;;;4901718;29;20048;-73
2023/01/28 06:21:09;;;;;;;25.27;17.08;;;2.80;99.90;;;;;;4900043;29;20587;-73
2023/01/28 06:23:35;;;;;;;27.00;17.35;;;2.80;99.90;;;;;;4898431;29;20045;-73
2023/01/28 06:26:01;;;;;;;29.42;19.88;;;2.80;99.90;;;;;;4898760;29;20044;-73
2023/01/28 06:28:26;;;;;;;40.25;22.77;;;2.90;99.90;;;;;;4902366;29;20040;-73
2023/01/28 06:30:52;;;;;;;44.42;24.45;;;2.90;99.90;;;;;;4902450;29;20506;-73
2023/01/28 06:33:18;;;;;;;75.72;35.50;;;2.90;99.90;;;;;;4909411;29;20044;-73
2023/01/28 06:35:44;;;;;;;65.47;30.80;;;2.90;99.90;;;;;;4883879;29;20044;-73
2023/01/28 06:38:11;;;;;;;56.78;28.70;;;3.00;99.90;;;;;;4901569;29;20039;-73
2023/01/28 06:40:37;;;;;;;44.35;23.52;;;3.00;99.90;;;;;;4898625;29;20056;-74
2023/01/28 06:43:03;;;;;;;31.02;19.15;;;3.00;99.90;;;;;;4901582;29;20035;-72
2023/01/28 06:45:30;;;;;;;37.38;20.50;;;2.90;99.90;;;;;;4894605;29;20899;-73
2023/01/28 06:47:55;;;;;;;41.17;24.83;;;2.90;99.90;;;;;;4896837;29;20147;-73
2023/01/28 06:50:21;;;;;;;36.22;21.83;;;2.90;99.90;;;;;;4897811;29;20112;-72
2023/01/28 06:52:47;;;;;;;32.55;19.88;;;2.90;99.90;;;;;;4897834;29;20047;-73
2023/01/28 06:55:12;;;;;;;29.27;20.00;;;3.10;99.90;;;;;;4896382;29;20166;-72
2023/01/28 06:57:39;;;;;;;29.55;18.95;;;3.10;99.90;;;;;;4897454;29;20523;-74
2023/01/28 07:00:07;;;;;;;30.05;19.60;;;3.10;99.90;;;;;;4900368;29;20576;-74
2023/01/28 07:02:33;;;;;;;32.00;19.92;;;3.20;99.90;;;;;;4899808;29;20060;-74
2023/01/28 07:04:58;;;;;;;35.28;21.83;;;3.30;99.90;;;;;;4900954;29;20064;-73
2023/01/28 07:07:24;;;;;;;42.92;25.77;;;3.30;99.90;;;;;;4899000;29;20048;-74
2023/01/28 07:09:50;;;;;;;46.40;28.40;;;3.40;99.90;;;;;;4901160;29;20496;-73
2023/01/28 07:12:15;;;;;;;35.53;23.83;;;3.30;99.90;;;;;;4888772;29;20039;-72
2023/01/28 07:14:41;;;;;;;44.10;28.90;;;3.30;99.90;;;;;;4899344;29;20041;-73
2023/01/28 07:17:07;;;;;;;28.98;19.20;;;3.20;99.90;;;;;;4903257;29;20036;-74
2023/01/28 07:19:32;;;;;;;32.42;22.38;;;3.00;99.90;;;;;;4896217;29;20100;-74
2023/01/28 07:21:59;;;;;;;39.33;24.48;;;3.00;99.90;;;;;;4901825;29;20134;-74
2023/01/28 07:24:25;;;;;;;43.80;27.02;;;3.00;99.90;;;;;;4894741;29;20088;-74
2023/01/28 07:26:51;;;;;;;43.92;29.00;;;3.10;99.90;;;;;;4896975;29;20047;-74
2023/01/28 07:29:17;;;;;;;85.05;49.30;;;3.10;99.90;;;;;;4895951;29;20044;-74
2023/01/28 07:31:42;;;;;;;46.90;30.33;;;3.10;99.90;;;;;;4894567;29;20045;-74
2023/01/28 07:34:08;;;;;;;68.30;37.45;;;3.00;99.90;;;;;;4902278;29;20040;-74
2023/01/28 07:36:34;;;;;;;45.53;30.88;;;3.00;99.90;;;;;;4897062;29;20119;-74
2023/01/28 07:39:00;;;;;;;46.03;31.17;;;3.10;99.90;;;;;;4894002;29;20915;-74
2023/01/28 07:41:26;;;;;;;41.97;27.10;;;3.20;99.90;;;;;;4899747;29;21229;-73
2023/01/28 07:43:52;;;;;;;41.10;25.45;;;3.20;99.90;;;;;;4895647;29;20044;-72
2023/01/28 07:46:18;;;;;;;34.58;23.33;;;3.30;99.90;;;;;;4898461;29;20058;-73
2023/01/28 07:48:44;;;;;;;32.95;22.33;;;3.30;99.90;;;;;;4893436;29;20639;-71
2023/01/28 07:51:10;;;;;;;33.25;21.67;;;3.20;99.90;;;;;;4893594;29;20041;-74
2023/01/28 07:53:36;;;;;;;33.35;21.10;;;3.20;99.90;;;;;;4890536;29;20036;-73
2023/01/28 07:56:03;;;;;;;35.97;21.25;;;3.20;99.90;;;;;;4891267;29;20661;-73
2023/01/28 07:58:29;;;;;;;37.25;23.42;;;3.20;99.90;;;;;;4889183;29;20044;-72
2023/01/28 08:00:57;;;;;;;29.73;19.83;;;3.20;99.90;;;;;;4894538;29;20058;-70
2023/01/28 08:03:23;;;;;;;28.85;18.48;;;3.20;99.90;;;;;;4898229;29;21599;-71
2023/01/28 08:05:52;;;;;;;25.60;17.25;;;3.20;99.90;;;;;;4897401;29;20115;-70
2023/01/28 08:08:17;;;;;;;27.33;17.98;;;3.30;99.90;;;;;;4893912;29;20485;-70
2023/01/28 08:10:44;;;;;;;27.13;18.08;;;3.40;99.90;;;;;;4893251;29;20052;-70
2023/01/28 08:13:11;;;;;;;30.65;18.77;;;3.50;99.90;;;;;;4895996;29;20067;-71
2023/01/28 08:15:37;;;;;;;31.45;20.08;;;3.50;99.90;;;;;;4891945;29;20045;-72
2023/01/28 08:18:05;;;;;;;52.17;26.50;;;3.50;99.90;;;;;;4893540;29;20028;-72
2023/01/28 08:20:30;;;;;;;31.77;19.73;;;3.60;99.90;;;;;;4900513;29;20165;-71
2023/01/28 08:23:18;;;;;;;28.40;18.98;;;3.60;99.90;;;;;;4889978;29;20059;-71
2023/01/28 08:25:45;;;;;;;28.15;18.38;;;3.70;99.90;;;;;;4884771;29;20036;-71
2023/01/28 08:28:11;;;;;;;26.08;16.73;;;3.70;99.90;;;;;;4897273;29;20489;-71
2023/01/28 08:30:38;;;;;;;42.97;26.27;;;3.80;99.90;;;;;;4893869;29;20470;-76
2023/01/28 08:33:06;;;;;;;34.63;20.88;;;3.80;99.90;;;;;;4898659;29;20036;-70
2023/01/28 08:35:33;;;;;;;32.72;21.30;;;3.90;99.90;;;;;;4897376;29;20051;-71
2023/01/28 08:38:00;;;;;;;72.53;43.15;;;3.90;99.90;;;;;;4894696;29;20048;-71
2023/01/28 08:40:26;;;;;;;39.63;24.35;;;4.00;99.90;;;;;;4879633;29;20046;-71
2023/01/28 08:42:53;;;;;;;29.98;19.58;;;4.00;99.90;;;;;;4892977;29;20109;-71
2023/01/28 08:45:24;;;;;;;24.08;16.95;;;4.10;99.90;;;;;;4893889;29;20519;-71
2023/01/28 08:48:02;;;;;;;19.90;14.93;;;4.20;99.90;;;;;;4887671;29;20048;-73
2023/01/28 08:50:34;;;;;;;22.00;13.88;;;4.30;99.90;;;;;;4899663;29;20035;-72
2023/01/28 08:53:00;;;;;;;;;;;4.30;99.90;;;;;;4900401;29;20135;-76
2023/01/28 08:55:26;;;;;;;17.67;12.38;;;4.30;99.90;;;;;;4892946;29;19923;-75
2023/01/28 08:57:52;;;;;;;20.23;14.02;;;4.30;99.90;;;;;;4885159;29;20055;-74
2023/01/28 09:00:19;;;;;;;19.02;13.95;;;4.20;99.90;;;;;;4894275;29;20071;-75
2023/01/28 09:02:45;;;;;;;19.13;13.57;;;4.20;99.90;;;;;;4899201;29;20127;-76
2023/01/28 09:05:11;;;;;;;19.60;14.05;;;4.30;99.90;;;;;;4895755;29;20428;-75
2023/01/28 09:07:37;;;;;;;18.23;13.65;;;4.40;99.90;;;;;;4876572;29;20039;-76
2023/01/28 09:10:04;;;;;;;22.10;14.63;;;4.40;99.90;;;;;;4891530;29;20037;-73
2023/01/28 09:12:30;;;;;;;18.30;12.52;;;4.50;99.90;;;;;;4897278;29;20120;-71
2023/01/28 09:14:56;;;;;;;19.48;12.93;;;4.50;99.90;;;;;;4888745;29;20036;-70
2023/01/28 09:17:22;;;;;;;20.85;13.68;;;4.50;99.90;;;;;;4891248;29;20036;-71
2023/01/28 09:19:48;;;;;;;17.08;11.60;;;4.70;99.90;;;;;;4894043;29;20457;-69
2023/01/28 09:22:14;;;;;;;15.65;10.40;;;4.90;99.90;;;;;;4898005;29;20043;-67
2023/01/28 09:24:39;;;;;;;13.95;9.02;;;5.10;99.90;;;;;;4894522;29;20051;-69
2023/01/28 09:27:05;;;;;;;13.35;9.20;;;5.10;99.90;;;;;;4890055;29;20036;-69
2023/01/28 09:29:33;;;;;;;12.98;8.80;;;5.10;99.90;;;;;;4893933;29;20444;-75
2023/01/28 09:31:59;;;;;;;10.70;7.65;;;5.20;99.90;;;;;;4885954;29;20063;-75
2023/01/28 09:34:25;;;;;;;12.40;8.90;;;5.10;99.90;;;;;;4894113;29;20143;-75
2023/01/28 09:36:50;;;;;;;18.42;11.02;;;5.10;99.90;;;;;;4894121;29;20036;-76
2023/01/28 09:39:16;;;;;;;16.35;10.18;;;5.30;99.90;;;;;;4884999;29;20036;-77
2023/01/28 09:41:41;;;;;;;16.40;10.32;;;5.30;99.90;;;;;;4894499;29;20119;-76
2023/01/28 09:44:44;;;;;;;24.92;14.27;;;5.40;99.90;;;;;;4887713;29;20490;-75
2023/01/28 09:47:27;;;;;;;21.65;13.18;;;5.40;99.90;;;;;;4878545;29;20519;-75
2023/01/28 09:49:57;;;;;;;19.98;12.85;;;5.30;99.90;;;;;;4894865;29;20044;-75
2023/01/28 09:52:25;;;;;;;16.08;12.25;;;5.30;99.90;;;;;;4893874;29;20040;-76
2023/01/28 09:55:03;;;;;;;24.15;16.00;;;5.30;99.90;;;;;;4895633;29;20135;-75
2023/01/28 09:57:59;;;;;;;20.13;11.90;;;5.40;99.90;;;;;;4888163;29;20058;-78
2023/01/28 10:00:54;;;;;;;18.75;11.05;;;5.50;99.90;;;;;;4892222;29;20107;-77
2023/01/28 10:03:38;;;;;;;12.52;9.60;;;5.40;99.90;;;;;;4900986;29;20032;-78
2023/01/28 10:06:16;;;;;;;13.82;10.20;;;5.40;99.90;;;;;;4901757;29;20039;-78
2023/01/28 10:08:57;;;;;;;22.35;13.65;;;5.40;99.90;;;;;;4915710;29;20123;-79
2023/01/28 10:11:45;;;;;;;13.18;9.93;;;5.50;99.90;;;;;;4902409;29;20059;-78
2023/01/28 10:14:31;;;;;;;15.30;8.65;;;5.50;99.90;;;;;;4893569;29;20070;-77
2023/01/28 10:17:12;;;;;;;40.38;16.75;;;5.50;99.90;;;;;;4902405;29;20044;-79
2023/01/28 10:20:00;;;;;;;11.60;8.45;;;5.60;99.90;;;;;;4904845;29;20052;-77
2023/01/28 10:22:30;;;;;;;9.15;7.03;;;5.50;99.90;;;;;;4892052;29;20100;-76
2023/01/28 10:25:05;;;;;;;10.27;7.68;;;5.30;99.90;;;;;;4896433;29;20035;-77
2023/01/28 10:27:36;;;;;;;44.53;16.75;;;5.40;99.90;;;;;;4901869;29;20047;-75
2023/01/28 10:30:19;;;;;;;20.83;9.33;;;5.40;99.90;;;;;;4891795;29;20032;-75
2023/01/28 10:33:19;;;;;;;10.82;7.70;;;5.40;99.90;;;;;;4899946;29;20036;-73
2023/01/28 10:35:46;;;;;;;10.30;7.60;;;5.50;99.90;;;;;;4900785;29;20613;-73
2023/01/28 10:38:23;;;;;;;22.65;10.30;;;5.60;99.90;;;;;;4895998;29;20564;-72
2023/01/28 10:40:49;;;;;;;26.55;13.15;;;5.50;99.90;;;;;;4894095;29;20130;-72
2023/01/28 10:43:18;;;;;;;50.28;24.00;;;5.50;99.90;;;;;;4900052;29;20150;-72
2023/01/28 10:45:56;;;;;;;28.05;14.82;;;5.50;99.90;;;;;;4902863;29;20485;-77
2023/01/28 10:48:25;;;;;;;58.08;23.27;;;5.40;99.90;;;;;;4900228;29;20123;-76
2023/01/28 10:50:55;;;;;;;12.95;7.85;;;5.30;99.90;;;;;;4898296;29;20032;-77
2023/01/28 10:53:33;;;;;;;11.73;7.03;;;5.30;99.90;;;;;;4894770;29;20033;-77
2023/01/28 10:55:59;;;;;;;10.82;6.97;;;5.30;99.90;;;;;;4894351;29;20060;-78
2023/01/28 10:58:30;;;;;;;9.02;6.72;;;5.30;99.90;;;;;;4891519;29;20118;-75
2023/01/28 11:01:06;;;;;;;16.38;8.90;;;5.30;99.90;;;;;;4896269;29;20048;-76
2023/01/28 11:03:34;;;;;;;10.45;7.22;;;5.20;99.90;;;;;;4902751;29;20041;-75
2023/01/28 11:06:00;;;;;;;10.85;6.90;;;5.20;99.90;;;;;;4894725;29;20044;-77
2023/01/28 11:08:28;;;;;;;8.57;6.35;;;5.20;99.90;;;;;;4879413;29;20028;-79
2023/01/28 11:10:55;;;;;;;13.07;6.70;;;5.10;99.90;;;;;;4894126;29;20158;-78
2023/01/28 11:13:29;;;;;;;13.55;8.15;;;5.20;99.90;;;;;;4895098;29;21132;-78
2023/01/28 11:16:13;;;;;;;14.77;7.72;;;5.20;99.90;;;;;;4890285;29;20059;-78
2023/01/28 11:18:45;;;;;;;19.88;7.97;;;5.20;99.90;;;;;;4888336;29;20028;-78
2023/01/28 11:21:26;;;;;;;9.40;6.55;;;5.20;99.90;;;;;;4895727;29;20056;-79
2023/01/28 11:24:02;;;;;;;15.90;8.38;;;5.20;99.90;;;;;;4889351;29;20049;-74
2023/01/28 11:26:32;;;;;;;22.02;9.80;;;5.20;99.90;;;;;;4876026;29;20778;-75
2023/01/28 11:28:58;;;;;;;10.32;7.53;;;5.20;99.90;;;;;;4877918;29;20517;-73
2023/01/28 11:31:26;;;;;;;10.90;7.45;;;5.30;99.90;;;;;;4884913;29;20036;-74
2023/01/28 11:33:58;;;;;;;10.98;7.55;;;5.30;99.90;;;;;;4893382;29;20055;-71
2023/01/28 11:36:29;;;;;;;28.58;13.60;;;5.40;99.90;;;;;;4890471;29;20051;-71
2023/01/28 11:39:15;;;;;;;53.10;18.17;;;5.40;99.90;;;;;;4885445;29;20290;-73
2023/01/28 11:41:40;;;;;;;13.05;8.38;;;5.50;99.90;;;;;;4894363;29;20071;-72
2023/01/28 11:44:20;;;;;;;7.63;5.75;;;5.50;99.90;;;;;;4890709;29;20036;-71
2023/01/28 11:46:48;;;;;;;8.27;5.93;;;5.50;99.90;;;;;;4897580;29;20036;-70
2023/01/28 11:49:20;;;;;;;29.50;11.13;;;5.60;99.90;;;;;;4891389;29;20041;-74
2023/01/28 11:51:59;;;;;;;23.73;8.93;;;5.70;99.90;;;;;;4889592;29;20041;-75
2023/01/28 11:54:51;;;;;;;8.50;5.43;;;5.70;99.90;;;;;;4888591;29;20036;-74
2023/01/28 11:57:39;;;;;;;22.35;8.80;;;5.80;99.90;;;;;;4875513;29;20052;-74
2023/01/28 12:00:23;;;;;;;35.83;13.10;;;5.80;99.90;;;;;;4891646;29;20048;-74
2023/01/28 12:02:57;;;;;;;9.45;6.30;;;5.80;99.90;;;;;;4888789;29;20381;-75
2023/01/28 12:05:47;;;;;;;10.85;6.50;;;5.80;99.90;;;;;;4886184;29;20032;-76
2023/01/28 12:08:18;;;;;;;17.02;7.70;;;5.90;99.90;;;;;;4872104;29;20067;-74
2023/01/28 12:10:50;;;;;;;25.75;11.25;;;5.90;99.90;;;;;;4891405;29;20044;-74
2023/01/28 12:13:33;;;;;;;8.45;5.72;;;5.90;99.90;;;;;;4888998;29;20094;-73
2023/01/28 12:16:26;;;;;;;24.85;10.27;;;5.80;99.90;;;;;;4890291;29;20522;-74
2023/01/28 12:19:23;;;;;;;27.13;12.00;;;5.70;99.90;;;;;;4893408;29;20043;-75
2023/01/28 12:22:17;;;;;;;10.98;8.20;;;5.70;99.90;;;;;;4896810;29;20493;-73
2023/01/28 12:25:13;;;;;;;20.65;16.15;;;5.70;99.90;;;;;;4896998;29;20128;-74
2023/01/28 12:27:39;;;;;;;8.90;6.03;;;5.70;99.90;;;;;;4890873;29;20063;-74
2023/01/28 12:30:38;;;;;;;9.20;6.28;;;5.70;99.90;;;;;;4892246;29;20452;-74
2023/01/28 12:33:28;;;;;;;14.38;9.70;;;5.50;99.90;;;;;;4881787;29;20188;-74
2023/01/28 12:36:13;;;;;;;8.88;6.15;;;5.50;99.90;;;;;;4893570;29;20054;-74
2023/01/28 12:39:13;;;;;;;14.65;10.48;;;5.50;99.90;;;;;;4885361;29;20040;-74
2023/01/28 12:41:47;;;;;;;13.27;7.90;;;5.50;99.90;;;;;;4892018;29;20047;-81
2023/01/28 12:44:24;;;;;;;7.93;5.88;;;5.40;99.90;;;;;;4875790;29;20498;-78
2023/01/28 12:47:06;;;;;;;11.93;6.35;;;5.50;99.90;;;;;;4893519;29;20142;-82
2023/01/28 12:49:43;;;;;;;8.15;6.65;;;5.60;99.90;;;;;;4890026;29;20044;-78
2023/01/28 12:52:32;;;;;;;9.32;7.40;;;5.60;99.90;;;;;;4891665;29;20036;-78
2023/01/28 12:55:24;;;;;;;8.13;6.05;;;5.70;99.90;;;;;;4892309;29;20531;-79
2023/01/28 12:57:50;;;;;;;10.27;6.85;;;5.90;99.90;;;;;;4890325;29;20052;-81
2023/01/28 13:00:31;;;;;;;13.05;8.13;;;5.90;99.90;;;;;;4890911;29;20136;-77
2023/01/28 13:03:34;;;;;;;20.92;10.48;;;5.90;99.90;;;;;;4892304;29;20052;-78
2023/01/28 13:06:18;;;;;;;24.17;10.73;;;5.90;99.90;;;;;;4881406;29;20052;-79
2023/01/28 13:08:44;;;;;;;16.20;8.55;;;5.80;99.90;;;;;;4882921;29;20043;-76
2023/01/28 13:11:16;;;;;;;27.77;13.43;;;5.80;99.90;;;;;;4886785;29;20101;-73
2023/01/28 13:13:42;;;;;;;;;;;5.80;99.90;;;;;;4879966;29;20523;-70
2023/01/28 13:16:09;;;;;;;12.75;7.10;;;5.90;99.90;;;;;;4882550;29;19915;-72
2023/01/28 13:18:41;;;;;;;12.73;7.50;;;5.80;99.90;;;;;;4882777;29;20044;-72
2023/01/28 13:21:27;;;;;;;12.85;6.82;;;5.80;99.90;;;;;;4886202;29;20064;-71
2023/01/28 13:24:08;;;;;;;13.82;7.18;;;5.80;99.90;;;;;;4885565;29;20048;-71
2023/01/28 13:26:47;;;;;;;20.27;9.85;;;5.80;99.90;;;;;;4881797;29;20122;-73
2023/01/28 13:29:13;;;;;;;10.00;7.20;;;5.80;99.90;;;;;;4885388;29;20048;-74
2023/01/28 13:31:42;;;;;;;9.57;7.10;;;5.70;99.90;;;;;;4879992;29;20051;-74